createdAt,value
2022-11-17T00:01:40.245Z,8.00
2022-11-17T00:04:44.082Z,7.97
2022-11-17T00:07:46.729Z,7.98
2022-11-17T00:10:48.892Z,7.96
2022-11-17T00:14:09.338Z,7.99
2022-11-17T00:17:12.208Z,8.02
2022-11-17T00:20:33.010Z,8.11
2022-11-17T00:23:47.579Z,8.09
2022-11-17T00:27:01.923Z,8.11
2022-11-17T00:30:04.653Z,8.07
2022-11-17T00:33:33.028Z,8.11
2022-11-17T00:36:40.349Z,8.05
2022-11-17T00:39:42.503Z,8.02
2022-11-17T00:42:44.676Z,8.06
2022-11-17T00:45:46.569Z,8.02
2022-11-17T00:48:48.711Z,7.91
2022-11-17T00:51:55.010Z,7.94
2022-11-17T00:54:57.211Z,8.07
2022-11-17T00:57:59.088Z,8.01
2022-11-17T01:01:01.696Z,7.93
2022-11-17T01:04:04.556Z,7.83
2022-11-17T01:07:07.040Z,7.84
2022-11-17T01:10:11.317Z,7.86
2022-11-17T01:13:13.428Z,7.85
2022-11-17T01:16:16.365Z,7.84
2022-11-17T01:19:19.329Z,7.87
2022-11-17T01:22:21.232Z,7.86
2022-11-17T01:25:23.366Z,7.84
2022-11-17T01:28:25.231Z,7.87
2022-11-17T01:31:31.332Z,7.89
2022-11-17T01:34:33.190Z,7.82
2022-11-17T01:37:35.342Z,7.77
2022-11-17T01:40:37.223Z,7.76
2022-11-17T01:43:47.451Z,7.69
2022-11-17T01:46:49.348Z,7.74
2022-11-17T01:49:54.637Z,7.88
2022-11-17T01:52:59.713Z,7.85
2022-11-17T01:56:07.228Z,7.75
2022-11-17T01:59:14.221Z,7.75
2022-11-17T02:02:16.542Z,7.76
2022-11-17T02:05:18.681Z,7.76
2022-11-17T02:08:22.501Z,7.87
2022-11-17T02:11:25.249Z,7.88
2022-11-17T02:14:28.254Z,7.92
2022-11-17T02:17:34.751Z,7.91
2022-11-17T02:20:51.080Z,7.94
2022-11-17T02:24:11.746Z,8.05
2022-11-17T02:27:26.001Z,8.10
2022-11-17T02:30:33.792Z,8.00
2022-11-17T02:33:39.051Z,7.89
2022-11-17T02:36:45.287Z,7.96
2022-11-17T02:39:50.263Z,7.89
2022-11-17T02:43:16.387Z,7.97
2022-11-17T02:46:20.700Z,7.85
2022-11-17T02:49:25.797Z,7.90
2022-11-17T02:52:29.713Z,7.74
2022-11-17T02:55:34.139Z,7.75
2022-11-17T02:58:36.299Z,7.91
2022-11-17T03:01:56.398Z,7.83
2022-11-17T03:04:58.596Z,7.65
2022-11-17T03:08:33.464Z,7.69
2022-11-17T03:11:44.026Z,7.64
2022-11-17T03:15:01.643Z,7.60
2022-11-17T03:18:08.968Z,7.46
2022-11-17T03:21:16.989Z,7.33
2022-11-17T03:24:33.871Z,7.22
2022-11-17T03:27:37.889Z,7.26
2022-11-17T03:30:42.637Z,7.24
2022-11-17T03:33:48.527Z,7.12
2022-11-17T03:36:53.782Z,6.98
2022-11-17T03:39:58.559Z,6.73
2022-11-17T03:43:02.131Z,6.58
2022-11-17T03:46:07.272Z,6.64
2022-11-17T03:49:32.950Z,6.64
2022-11-17T03:52:35.317Z,6.62
2022-11-17T03:56:00.559Z,6.64
2022-11-17T03:59:02.469Z,6.88
2022-11-17T04:02:04.975Z,6.85
2022-11-17T04:05:07.546Z,6.93
2022-11-17T04:08:09.436Z,6.81
2022-11-17T04:11:30.212Z,6.80
2022-11-17T04:14:50.796Z,6.77
2022-11-17T04:17:53.106Z,6.65
2022-11-17T04:20:56.584Z,6.60
2022-11-17T04:23:58.761Z,6.54
2022-11-17T04:27:19.538Z,6.42
2022-11-17T04:30:21.728Z,6.23
2022-11-17T04:33:23.596Z,6.20
2022-11-17T04:36:27.000Z,6.13
2022-11-17T04:39:28.875Z,6.35
2022-11-17T04:42:31.040Z,6.28
2022-11-17T04:45:34.442Z,6.15
2022-11-17T04:48:36.631Z,6.03
2022-11-17T04:51:38.994Z,6.05
2022-11-17T04:54:41.156Z,6.05
2022-11-17T04:57:43.019Z,6.00
2022-11-17T05:00:45.173Z,6.39
2022-11-17T05:03:48.518Z,6.49
2022-11-17T05:06:50.706Z,6.54
2022-11-17T05:09:52.691Z,6.70
2022-11-17T05:13:13.689Z,6.95
2022-11-17T05:16:34.525Z,6.94
2022-11-17T05:19:41.143Z,6.97
2022-11-17T05:23:18.170Z,7.02
2022-11-17T05:26:27.629Z,7.05
2022-11-17T05:29:29.551Z,7.14
2022-11-17T05:32:31.739Z,7.13
2022-11-17T05:35:33.596Z,7.09
2022-11-17T05:38:35.753Z,7.03
2022-11-17T05:41:37.686Z,7.02
2022-11-17T05:44:40.004Z,7.00
2022-11-17T05:47:41.996Z,6.94
2022-11-17T05:50:44.134Z,6.87
2022-11-17T05:53:46.488Z,6.74
2022-11-17T05:56:52.514Z,6.77
2022-11-17T05:59:57.711Z,6.85
2022-11-17T06:03:03.230Z,6.82
2022-11-17T06:06:05.550Z,6.80
2022-11-17T06:09:07.432Z,6.80
2022-11-17T06:12:11.893Z,6.85
2022-11-17T06:15:13.778Z,7.09
2022-11-17T06:18:19.007Z,7.08
2022-11-17T06:21:21.224Z,7.01
2022-11-17T06:24:23.658Z,6.96
2022-11-17T06:27:25.892Z,7.07
2022-11-17T06:30:28.752Z,7.07
2022-11-17T06:33:31.198Z,7.09
2022-11-17T06:36:33.468Z,7.12
2022-11-17T06:39:35.352Z,7.19
2022-11-17T06:42:57.232Z,7.33
2022-11-17T06:46:04.644Z,7.43
2022-11-17T06:49:07.605Z,7.61
2022-11-17T06:52:11.035Z,7.70
2022-11-17T06:55:13.270Z,7.68
2022-11-17T06:58:15.181Z,7.73
2022-11-17T07:01:17.414Z,7.77
2022-11-17T07:04:19.362Z,7.66
2022-11-17T07:07:21.624Z,7.61
2022-11-17T07:10:23.769Z,7.53
2022-11-17T07:13:25.987Z,7.59
2022-11-17T07:16:29.253Z,7.69
2022-11-17T07:19:31.505Z,7.69
2022-11-17T07:22:33.452Z,7.73
2022-11-17T07:25:35.737Z,7.97
2022-11-17T07:28:38.043Z,8.30
2022-11-17T07:31:40.472Z,8.58
2022-11-17T07:34:42.582Z,8.82
2022-11-17T07:37:44.831Z,8.88
2022-11-17T07:40:46.772Z,9.20
2022-11-17T07:43:49.053Z,9.11
2022-11-17T07:46:51.209Z,9.17
2022-11-17T07:49:54.531Z,9.27
2022-11-17T07:52:57.164Z,9.24
2022-11-17T07:56:03.252Z,9.10
2022-11-17T07:59:05.412Z,9.05
2022-11-17T08:02:09.222Z,9.04
2022-11-17T08:05:11.705Z,9.14
2022-11-17T08:08:14.081Z,9.32
2022-11-17T08:11:16.712Z,9.48
2022-11-17T08:14:18.862Z,9.37
2022-11-17T08:17:21.074Z,9.46
2022-11-17T08:20:23.721Z,9.52
2022-11-17T08:23:26.265Z,9.58
2022-11-17T08:26:28.239Z,9.88
2022-11-17T08:29:30.490Z,9.62
2022-11-17T08:32:32.402Z,9.59
2022-11-17T08:35:37.656Z,9.44
2022-11-17T08:38:40.079Z,9.36
2022-11-17T08:41:42.336Z,9.15
2022-11-17T08:44:44.330Z,9.04
2022-11-17T08:47:46.583Z,9.06
2022-11-17T08:50:48.684Z,9.07
2022-11-17T08:53:50.857Z,9.12
2022-11-17T08:56:57.118Z,9.22
2022-11-17T08:59:59.338Z,9.35
2022-11-17T09:03:04.688Z,9.36
2022-11-17T09:06:06.923Z,9.42
2022-11-17T09:09:08.906Z,9.07
2022-11-17T09:12:11.114Z,9.00
2022-11-17T09:15:13.003Z,8.93
2022-11-17T09:18:15.385Z,9.20
2022-11-17T09:21:17.350Z,9.30
2022-11-17T09:24:19.542Z,9.32
2022-11-17T09:27:22.520Z,9.49
2022-11-17T09:30:24.785Z,9.77
2022-11-17T09:33:27.018Z,10.01
2022-11-17T09:36:29.160Z,9.85
2022-11-17T09:39:33.432Z,9.92
2022-11-17T09:42:40.024Z,10.60
2022-11-17T09:45:44.142Z,10.88
2022-11-17T09:48:50.021Z,11.49
2022-11-17T09:51:52.343Z,11.71
2022-11-17T09:54:57.381Z,11.77
2022-11-17T09:58:14.351Z,11.44
2022-11-17T10:01:18.814Z,11.37
2022-11-17T10:04:21.174Z,11.50
2022-11-17T10:07:23.369Z,11.84
2022-11-17T10:10:33.631Z,13.03
2022-11-17T10:13:36.508Z,13.54
2022-11-17T10:16:39.878Z,13.86
2022-11-17T10:19:43.777Z,12.45
2022-11-17T10:22:46.581Z,12.02
2022-11-17T10:25:55.657Z,11.73
2022-11-17T10:29:12.428Z,11.12
2022-11-17T10:32:14.770Z,10.66
2022-11-17T10:35:25.129Z,10.55
2022-11-17T10:38:29.188Z,10.32
2022-11-17T10:41:40.993Z,10.26
2022-11-17T10:44:44.215Z,10.32
2022-11-17T10:47:46.490Z,10.24
2022-11-17T10:50:52.905Z,10.37
2022-11-17T10:54:01.297Z,10.62
2022-11-17T10:57:07.187Z,10.55
2022-11-17T11:00:21.860Z,10.71
2022-11-17T11:03:30.956Z,10.83
2022-11-17T11:06:34.384Z,10.72
2022-11-17T11:09:39.158Z,11.02
2022-11-17T11:12:50.398Z,10.84
2022-11-17T11:15:53.564Z,11.20
2022-11-17T11:18:56.989Z,10.89
2022-11-17T11:22:08.154Z,11.47
2022-11-17T11:25:16.664Z,12.09
2022-11-17T11:28:40.054Z,13.35
2022-11-17T11:32:06.797Z,13.49
2022-11-17T11:35:17.506Z,13.91
2022-11-17T11:38:30.798Z,13.35
2022-11-17T11:41:45.212Z,13.36
2022-11-17T11:44:47.489Z,12.85
2022-11-17T11:48:04.898Z,12.90
2022-11-17T11:51:14.580Z,12.58
2022-11-17T11:54:21.242Z,12.47
2022-11-17T11:57:27.197Z,12.40
2022-11-17T12:00:29.108Z,12.11
2022-11-17T12:03:46.202Z,11.91
2022-11-17T12:06:54.158Z,11.54
2022-11-17T12:09:59.691Z,11.70
2022-11-17T12:13:03.252Z,12.10
2022-11-17T12:16:24.316Z,11.80
2022-11-17T12:19:44.416Z,11.79
2022-11-17T12:22:51.500Z,12.26
2022-11-17T12:25:57.878Z,12.45
2022-11-17T12:29:18.776Z,12.32
2022-11-17T12:32:49.898Z,12.26
2022-11-17T12:36:11.649Z,11.78
2022-11-17T12:39:33.624Z,11.35
2022-11-17T12:42:36.886Z,11.66
2022-11-17T12:46:08.486Z,11.63
2022-11-17T12:49:19.681Z,11.78
2022-11-17T12:52:32.610Z,11.74
2022-11-17T12:55:42.607Z,11.94
2022-11-17T12:58:58.439Z,12.13
2022-11-17T13:02:03.787Z,11.79
2022-11-17T13:05:15.292Z,11.79
2022-11-17T13:08:19.778Z,11.58
2022-11-17T13:11:21.828Z,11.35
2022-11-17T13:14:23.986Z,11.25
2022-11-17T13:17:31.036Z,11.01
2022-11-17T13:20:34.003Z,10.71
2022-11-17T13:23:43.129Z,10.69
2022-11-17T13:26:57.841Z,10.54
2022-11-17T13:30:13.135Z,10.41
2022-11-17T13:33:19.885Z,10.48
2022-11-17T13:36:24.858Z,10.65
2022-11-17T13:39:28.123Z,10.95
2022-11-17T13:42:31.335Z,10.93
2022-11-17T13:45:33.615Z,11.08
2022-11-17T13:48:40.048Z,10.97
2022-11-17T13:51:43.103Z,10.69
2022-11-17T13:54:45.213Z,10.55
2022-11-17T13:58:01.886Z,10.40
2022-11-17T14:01:04.273Z,10.26
2022-11-17T14:04:20.104Z,10.28
2022-11-17T14:07:29.376Z,10.40
2022-11-17T14:10:34.240Z,10.41
2022-11-17T14:13:48.065Z,10.36
2022-11-17T14:16:50.307Z,10.36
2022-11-17T14:19:52.303Z,10.31
2022-11-17T14:23:02.048Z,10.24
2022-11-17T14:26:04.531Z,10.23
2022-11-17T14:29:10.125Z,10.18
2022-11-17T14:32:12.073Z,10.11
2022-11-17T14:35:14.949Z,10.07
2022-11-17T14:38:19.019Z,10.02
2022-11-17T14:41:21.366Z,9.97
2022-11-17T14:44:23.755Z,9.94
2022-11-17T14:47:26.292Z,9.88
2022-11-17T14:50:28.706Z,9.92
2022-11-17T14:53:30.919Z,9.91
2022-11-17T14:56:34.666Z,9.78
2022-11-17T14:59:36.885Z,9.75
2022-11-17T15:02:38.909Z,9.78
2022-11-17T15:05:45.757Z,9.80
2022-11-17T15:08:52.653Z,9.68
2022-11-17T15:11:54.986Z,9.59
2022-11-17T15:14:57.648Z,9.46
2022-11-17T15:18:00.028Z,9.37
2022-11-17T15:21:09.311Z,9.34
2022-11-17T15:24:11.552Z,9.45
2022-11-17T15:27:14.272Z,9.36
2022-11-17T15:30:16.692Z,9.32
2022-11-17T15:33:18.670Z,9.26
2022-11-17T15:36:21.895Z,9.30
2022-11-17T15:39:23.867Z,9.33
2022-11-17T15:42:28.427Z,9.31
2022-11-17T15:45:30.464Z,9.29
2022-11-17T15:48:33.406Z,9.24
2022-11-17T15:51:36.934Z,9.10
2022-11-17T15:54:42.058Z,9.01
2022-11-17T15:57:44.154Z,8.91
2022-11-17T16:00:46.584Z,8.89
2022-11-17T16:03:48.944Z,8.91
2022-11-17T16:06:50.903Z,8.91
2022-11-17T16:09:53.138Z,8.95
2022-11-17T16:12:56.314Z,8.96
2022-11-17T16:15:58.765Z,8.98
2022-11-17T16:19:01.020Z,9.01
2022-11-17T16:22:03.368Z,9.05
2022-11-17T16:25:07.195Z,9.13
2022-11-17T16:28:09.829Z,9.23
2022-11-17T16:31:24.859Z,9.37
2022-11-17T16:34:27.066Z,9.40
2022-11-17T16:37:28.983Z,9.49
2022-11-17T16:40:31.158Z,9.42
2022-11-17T16:43:33.255Z,9.46
2022-11-17T16:46:35.643Z,9.55
2022-11-17T16:49:37.497Z,9.55
2022-11-17T16:52:39.692Z,9.49
2022-11-17T16:55:41.672Z,9.49
2022-11-17T16:58:43.852Z,9.48
2022-11-17T17:01:45.814Z,9.52
2022-11-17T17:04:47.958Z,9.54
2022-11-17T17:07:49.830Z,9.55
2022-11-17T17:10:51.960Z,9.52
2022-11-17T17:13:53.896Z,9.58
2022-11-17T17:16:56.055Z,9.55
2022-11-17T17:19:57.982Z,9.49
2022-11-17T17:23:03.043Z,9.52
2022-11-17T17:26:06.643Z,9.57
2022-11-17T17:29:10.096Z,9.51
2022-11-17T17:32:11.970Z,9.51
2022-11-17T17:35:14.150Z,9.44
2022-11-17T17:38:16.075Z,9.48
2022-11-17T17:41:19.487Z,9.46
2022-11-17T17:44:21.351Z,9.48
2022-11-17T17:47:23.552Z,9.46
2022-11-17T17:50:25.478Z,9.45
2022-11-17T17:53:27.673Z,9.38
2022-11-17T17:56:30.611Z,9.34
2022-11-17T17:59:32.872Z,9.42
2022-11-17T18:02:34.809Z,9.38
2022-11-17T18:05:38.260Z,9.41
2022-11-17T18:08:40.198Z,9.37
2022-11-17T18:11:45.912Z,9.38
2022-11-17T18:14:48.000Z,9.36
2022-11-17T18:17:50.146Z,9.34
2022-11-17T18:20:58.315Z,9.32
2022-11-17T18:24:01.445Z,9.39
2022-11-17T18:27:03.416Z,9.44
2022-11-17T18:30:05.884Z,9.39
2022-11-17T18:33:07.791Z,9.33
2022-11-17T18:36:10.087Z,9.36
2022-11-17T18:39:12.448Z,9.36
2022-11-17T18:42:14.617Z,9.35
2022-11-17T18:45:16.562Z,9.30
2022-11-17T18:48:18.735Z,9.25
2022-11-17T18:51:21.961Z,9.16
2022-11-17T18:54:24.403Z,9.10
2022-11-17T18:57:26.650Z,8.99
2022-11-17T19:00:28.827Z,8.98
2022-11-17T19:03:30.750Z,8.91
2022-11-17T19:06:33.152Z,8.86
2022-11-17T19:09:35.147Z,8.93
2022-11-17T19:12:37.467Z,8.92
2022-11-17T19:15:39.428Z,8.86
2022-11-17T19:18:42.137Z,8.89
2022-11-17T19:21:44.411Z,8.91
2022-11-17T19:24:46.576Z,8.84
2022-11-17T19:27:48.638Z,8.84
2022-11-17T19:30:50.915Z,8.85
2022-11-17T19:33:53.486Z,8.94
2022-11-17T19:36:55.734Z,8.90
2022-11-17T19:39:57.805Z,8.81
2022-11-17T19:43:00.031Z,8.79
2022-11-17T19:46:03.202Z,8.80
2022-11-17T19:49:06.322Z,8.72
2022-11-17T19:52:08.294Z,8.68
2022-11-17T19:55:10.471Z,8.72
2022-11-17T19:58:12.344Z,8.85
2022-11-17T20:01:15.709Z,8.97
2022-11-17T20:04:17.994Z,8.85
2022-11-17T20:07:20.012Z,8.72
2022-11-17T20:10:22.419Z,8.71
2022-11-17T20:13:24.360Z,8.81
2022-11-17T20:16:27.396Z,8.80
2022-11-17T20:19:29.379Z,8.69
2022-11-17T20:22:31.574Z,8.63
2022-11-17T20:25:33.482Z,8.63
2022-11-17T20:28:36.498Z,8.75
2022-11-17T20:31:38.424Z,8.78
2022-11-17T20:34:40.592Z,8.67
2022-11-17T20:37:42.603Z,8.56
2022-11-17T20:40:44.806Z,8.56
2022-11-17T20:43:48.106Z,8.56
2022-11-17T20:46:51.395Z,8.52
2022-11-17T20:49:54.114Z,8.56
2022-11-17T20:52:56.321Z,8.52
2022-11-17T20:55:58.795Z,8.47
2022-11-17T20:59:00.919Z,8.42
2022-11-17T21:02:02.812Z,8.53
2022-11-17T21:05:05.137Z,8.69
2022-11-17T21:08:07.092Z,8.66
2022-11-17T21:11:10.807Z,8.63
2022-11-17T21:14:13.068Z,8.58
2022-11-17T21:17:34.316Z,8.52
2022-11-17T21:20:36.263Z,8.48
2022-11-17T21:23:39.324Z,8.38
2022-11-17T21:26:41.281Z,8.34
2022-11-17T21:29:43.427Z,8.33
2022-11-17T21:32:45.402Z,8.34
2022-11-17T21:35:47.539Z,8.38
2022-11-17T21:38:49.860Z,8.42
2022-11-17T21:41:52.028Z,8.46
2022-11-17T21:44:53.955Z,8.46
2022-11-17T21:47:59.373Z,8.53
2022-11-17T21:51:01.642Z,8.56
2022-11-17T21:54:05.608Z,8.55
2022-11-17T21:57:07.519Z,8.45
2022-11-17T22:00:10.042Z,8.45
2022-11-17T22:03:12.222Z,8.29
2022-11-17T22:06:18.748Z,8.31
2022-11-17T22:09:20.897Z,8.23
2022-11-17T22:12:22.823Z,8.14
2022-11-17T22:15:24.976Z,8.16
2022-11-17T22:18:26.843Z,8.05
2022-11-17T22:21:29.019Z,7.98
2022-11-17T22:24:30.880Z,8.07
2022-11-17T22:27:33.100Z,8.03
2022-11-17T22:30:38.017Z,8.03
2022-11-17T22:33:40.229Z,7.86
2022-11-17T22:36:42.158Z,7.70
2022-11-17T22:39:44.403Z,7.71
2022-11-17T22:42:46.294Z,7.82
2022-11-17T22:45:48.458Z,7.80
2022-11-17T22:48:50.338Z,7.71
2022-11-17T22:52:04.490Z,7.66
2022-11-17T22:55:06.558Z,7.57
2022-11-17T22:58:08.743Z,7.54
2022-11-17T23:01:10.622Z,7.55
2022-11-17T23:04:12.998Z,7.59
2022-11-17T23:07:14.957Z,7.47
2022-11-17T23:10:17.257Z,7.39
2022-11-17T23:13:19.171Z,7.30
2022-11-17T23:16:22.118Z,7.30
2022-11-17T23:19:24.088Z,7.35
2022-11-17T23:22:26.256Z,7.44
2022-11-17T23:25:28.506Z,7.35
2022-11-17T23:28:31.012Z,7.35
2022-11-17T23:31:32.977Z,7.32
2022-11-17T23:34:35.246Z,7.32
2022-11-17T23:37:37.315Z,7.23
2022-11-17T23:40:39.480Z,7.27
2022-11-17T23:43:41.363Z,7.27
2022-11-17T23:46:43.560Z,7.38
2022-11-17T23:49:45.477Z,7.23
2022-11-17T23:52:47.637Z,7.16
2022-11-17T23:55:56.318Z,7.03
2022-11-17T23:58:58.952Z,6.95
